sensor_id;sensor_type;location;lat;lon;timestamp;P1;P2;P0
64627;PMS5003;59036;50.960;0.314;2022-08-19T00:01:27;12;12;
64627;PMS5003;59036;50.960;0.314;2022-08-19T00:03:56;9;9;
64627;PMS5003;59036;50.960;0.314;2022-08-19T00:06:23;11;9;
64627;PMS5003;59036;50.960;0.314;2022-08-19T00:08:51;9;9;
64627;PMS5003;59036;50.960;0.314;2022-08-19T00:11:19;11;11;
64627;PMS5003;59036;50.960;0.314;2022-08-19T00:13:47;10;9;
64627;PMS5003;59036;50.960;0.314;2022-08-19T00:16:14;11;11;
64627;PMS5003;59036;50.960;0.314;2022-08-19T00:18:41;14;12;
64627;PMS5003;59036;50.960;0.314;2022-08-19T00:21:08;14;13;
64627;PMS5003;59036;50.960;0.314;2022-08-19T00:23:36;12;11;
64627;PMS5003;59036;50.960;0.314;2022-08-19T00:26:03;16;16;
64627;PMS5003;59036;50.960;0.314;2022-08-19T00:28:30;15;14;
64627;PMS5003;59036;50.960;0.314;2022-08-19T00:30:58;13;12;
64627;PMS5003;59036;50.960;0.314;2022-08-19T00:33:26;16;14;
64627;PMS5003;59036;50.960;0.314;2022-08-19T00:35:54;13;13;
64627;PMS5003;59036;50.960;0.314;2022-08-19T00:38:21;13;13;
64627;PMS5003;59036;50.960;0.314;2022-08-19T00:40:48;13;12;
64627;PMS5003;59036;50.960;0.314;2022-08-19T00:43:18;12;12;
64627;PMS5003;59036;50.960;0.314;2022-08-19T00:45:46;15;12;
64627;PMS5003;59036;50.960;0.314;2022-08-19T00:48:14;9;9;
64627;PMS5003;59036;50.960;0.314;2022-08-19T00:50:43;10;9;
64627;PMS5003;59036;50.960;0.314;2022-08-19T00:53:12;10;10;
64627;PMS5003;59036;50.960;0.314;2022-08-19T00:55:42;8;8;
64627;PMS5003;59036;50.960;0.314;2022-08-19T00:58:13;8;8;
64627;PMS5003;59036;50.960;0.314;2022-08-19T01:00:42;9;8;
64627;PMS5003;59036;50.960;0.314;2022-08-19T01:03:11;8;8;
64627;PMS5003;59036;50.960;0.314;2022-08-19T01:05:41;7;7;
64627;PMS5003;59036;50.960;0.314;2022-08-19T01:08:09;11;10;
64627;PMS5003;59036;50.960;0.314;2022-08-19T01:10:39;12;11;
64627;PMS5003;59036;50.960;0.314;2022-08-19T01:13:09;12;10;
64627;PMS5003;59036;50.960;0.314;2022-08-19T01:15:40;8;8;
64627;PMS5003;59036;50.960;0.314;2022-08-19T01:18:12;10;10;
64627;PMS5003;59036;50.960;0.314;2022-08-19T01:20:42;11;11;
64627;PMS5003;59036;50.960;0.314;2022-08-19T01:23:10;13;11;
64627;PMS5003;59036;50.960;0.314;2022-08-19T01:25:39;10;9;
64627;PMS5003;59036;50.960;0.314;2022-08-19T01:28:14;11;10;
64627;PMS5003;59036;50.960;0.314;2022-08-19T01:30:44;9;9;
64627;PMS5003;59036;50.960;0.314;2022-08-19T01:33:13;12;12;
64627;PMS5003;59036;50.960;0.314;2022-08-19T01:35:41;10;9;
64627;PMS5003;59036;50.960;0.314;2022-08-19T01:38:09;12;9;
64627;PMS5003;59036;50.960;0.314;2022-08-19T01:40:46;9;9;
64627;PMS5003;59036;50.960;0.314;2022-08-19T01:43:13;11;10;
64627;PMS5003;59036;50.960;0.314;2022-08-19T01:45:52;10;10;
64627;PMS5003;59036;50.960;0.314;2022-08-19T01:48:19;9;9;
64627;PMS5003;59036;50.960;0.314;2022-08-19T01:50:46;8;7;
64627;PMS5003;59036;50.960;0.314;2022-08-19T01:53:14;10;10;
64627;PMS5003;59036;50.960;0.314;2022-08-19T01:55:41;11;9;
64627;PMS5003;59036;50.960;0.314;2022-08-19T01:58:11;8;8;
64627;PMS5003;59036;50.960;0.314;2022-08-19T02:00:41;9;9;
64627;PMS5003;59036;50.960;0.314;2022-08-19T02:03:09;10;8;
64627;PMS5003;59036;50.960;0.314;2022-08-19T02:05:36;7;7;
64627;PMS5003;59036;50.960;0.314;2022-08-19T02:08:04;9;6;
64627;PMS5003;59036;50.960;0.314;2022-08-19T02:10:31;9;8;
64627;PMS5003;59036;50.960;0.314;2022-08-19T02:12:58;9;8;
64627;PMS5003;59036;50.960;0.314;2022-08-19T02:15:25;7;7;
64627;PMS5003;59036;50.960;0.314;2022-08-19T02:17:52;8;8;
64627;PMS5003;59036;50.960;0.314;2022-08-19T02:20:19;9;8;
64627;PMS5003;59036;50.960;0.314;2022-08-19T02:22:46;7;7;
64627;PMS5003;59036;50.960;0.314;2022-08-19T02:25:13;7;7;
64627;PMS5003;59036;50.960;0.314;2022-08-19T02:27:41;7;6;
64627;PMS5003;59036;50.960;0.314;2022-08-19T02:30:11;6;5;
64627;PMS5003;59036;50.960;0.314;2022-08-19T02:32:40;6;6;
64627;PMS5003;59036;50.960;0.314;2022-08-19T02:35:07;5;4;
64627;PMS5003;59036;50.960;0.314;2022-08-19T02:37:35;5;4;
64627;PMS5003;59036;50.960;0.314;2022-08-19T02:40:02;5;5;
64627;PMS5003;59036;50.960;0.314;2022-08-19T02:42:29;5;5;
64627;PMS5003;59036;50.960;0.314;2022-08-19T02:44:56;4;4;
64627;PMS5003;59036;50.960;0.314;2022-08-19T02:47:23;8;7;
64627;PMS5003;59036;50.960;0.314;2022-08-19T02:49:50;7;7;
64627;PMS5003;59036;50.960;0.314;2022-08-19T02:52:17;5;5;
64627;PMS5003;59036;50.960;0.314;2022-08-19T02:54:45;7;7;
64627;PMS5003;59036;50.960;0.314;2022-08-19T02:57:11;6;6;
64627;PMS5003;59036;50.960;0.314;2022-08-19T02:59:38;7;6;
64627;PMS5003;59036;50.960;0.314;2022-08-19T03:02:05;6;5;
64627;PMS5003;59036;50.960;0.314;2022-08-19T03:04:32;3;3;
64627;PMS5003;59036;50.960;0.314;2022-08-19T03:07:00;5;4;
64627;PMS5003;59036;50.960;0.314;2022-08-19T03:09:27;4;4;
64627;PMS5003;59036;50.960;0.314;2022-08-19T03:11:54;4;4;
64627;PMS5003;59036;50.960;0.314;2022-08-19T03:14:21;4;4;
64627;PMS5003;59036;50.960;0.314;2022-08-19T03:16:49;4;4;
64627;PMS5003;59036;50.960;0.314;2022-08-19T03:19:18;7;7;
64627;PMS5003;59036;50.960;0.314;2022-08-19T03:21:47;4;4;
64627;PMS5003;59036;50.960;0.314;2022-08-19T03:24:15;7;7;
64627;PMS5003;59036;50.960;0.314;2022-08-19T03:26:44;7;6;
64627;PMS5003;59036;50.960;0.314;2022-08-19T03:29:12;5;4;
64627;PMS5003;59036;50.960;0.314;2022-08-19T03:31:41;5;5;
64627;PMS5003;59036;50.960;0.314;2022-08-19T03:34:10;7;7;
64627;PMS5003;59036;50.960;0.314;2022-08-19T03:36:38;5;5;
64627;PMS5003;59036;50.960;0.314;2022-08-19T03:39:05;5;5;
64627;PMS5003;59036;50.960;0.314;2022-08-19T03:41:35;6;6;
64627;PMS5003;59036;50.960;0.314;2022-08-19T03:44:04;6;5;
64627;PMS5003;59036;50.960;0.314;2022-08-19T03:46:32;6;6;
64627;PMS5003;59036;50.960;0.314;2022-08-19T03:49:00;6;6;
64627;PMS5003;59036;50.960;0.314;2022-08-19T03:51:31;10;8;
64627;PMS5003;59036;50.960;0.314;2022-08-19T03:54:00;5;4;
64627;PMS5003;59036;50.960;0.314;2022-08-19T03:56:29;7;7;
64627;PMS5003;59036;50.960;0.314;2022-08-19T03:58:58;8;7;
64627;PMS5003;59036;50.960;0.314;2022-08-19T04:01:26;8;8;
64627;PMS5003;59036;50.960;0.314;2022-08-19T04:03:55;7;7;
64627;PMS5003;59036;50.960;0.314;2022-08-19T04:06:25;7;6;
64627;PMS5003;59036;50.960;0.314;2022-08-19T04:08:54;7;7;
64627;PMS5003;59036;50.960;0.314;2022-08-19T04:11:23;4;4;
64627;PMS5003;59036;50.960;0.314;2022-08-19T04:13:53;4;4;
64627;PMS5003;59036;50.960;0.314;2022-08-19T04:16:22;6;5;
64627;PMS5003;59036;50.960;0.314;2022-08-19T04:18:52;3;3;
64627;PMS5003;59036;50.960;0.314;2022-08-19T04:21:21;5;4;
64627;PMS5003;59036;50.960;0.314;2022-08-19T04:23:51;3;2;
64627;PMS5003;59036;50.960;0.314;2022-08-19T04:26:19;3;3;
64627;PMS5003;59036;50.960;0.314;2022-08-19T04:28:49;4;4;
64627;PMS5003;59036;50.960;0.314;2022-08-19T04:31:18;5;5;
64627;PMS5003;59036;50.960;0.314;2022-08-19T04:33:46;3;3;
64627;PMS5003;59036;50.960;0.314;2022-08-19T04:36:15;3;3;
64627;PMS5003;59036;50.960;0.314;2022-08-19T04:38:44;4;4;
64627;PMS5003;59036;50.960;0.314;2022-08-19T04:41:11;2;2;
64627;PMS5003;59036;50.960;0.314;2022-08-19T04:43:38;4;4;
64627;PMS5003;59036;50.960;0.314;2022-08-19T04:46:06;3;3;
64627;PMS5003;59036;50.960;0.314;2022-08-19T04:48:34;3;2;
64627;PMS5003;59036;50.960;0.314;2022-08-19T04:51:05;3;3;
64627;PMS5003;59036;50.960;0.314;2022-08-19T04:53:34;2;2;
64627;PMS5003;59036;50.960;0.314;2022-08-19T04:56:04;3;3;
64627;PMS5003;59036;50.960;0.314;2022-08-19T04:58:33;5;3;
64627;PMS5003;59036;50.960;0.314;2022-08-19T05:01:01;3;2;
64627;PMS5003;59036;50.960;0.314;2022-08-19T05:03:28;4;3;
64627;PMS5003;59036;50.960;0.314;2022-08-19T05:05:56;1;1;
64627;PMS5003;59036;50.960;0.314;2022-08-19T05:08:23;3;3;
64627;PMS5003;59036;50.960;0.314;2022-08-19T05:10:51;8;5;
64627;PMS5003;59036;50.960;0.314;2022-08-19T05:13:18;3;3;
64627;PMS5003;59036;50.960;0.314;2022-08-19T05:15:53;4;4;
64627;PMS5003;59036;50.960;0.314;2022-08-19T05:18:21;4;4;
64627;PMS5003;59036;50.960;0.314;2022-08-19T05:20:48;3;3;
64627;PMS5003;59036;50.960;0.314;2022-08-19T05:23:15;9;8;
64627;PMS5003;59036;50.960;0.314;2022-08-19T05:25:42;7;6;
64627;PMS5003;59036;50.960;0.314;2022-08-19T05:28:09;6;5;
64627;PMS5003;59036;50.960;0.314;2022-08-19T05:30:36;6;6;
64627;PMS5003;59036;50.960;0.314;2022-08-19T05:33:03;4;4;
64627;PMS5003;59036;50.960;0.314;2022-08-19T05:35:30;5;5;
64627;PMS5003;59036;50.960;0.314;2022-08-19T05:37:57;5;5;
64627;PMS5003;59036;50.960;0.314;2022-08-19T05:40:24;5;4;
64627;PMS5003;59036;50.960;0.314;2022-08-19T05:42:51;6;6;
64627;PMS5003;59036;50.960;0.314;2022-08-19T05:45:18;4;4;
64627;PMS5003;59036;50.960;0.314;2022-08-19T05:47:45;5;5;
64627;PMS5003;59036;50.960;0.314;2022-08-19T05:50:13;6;6;
64627;PMS5003;59036;50.960;0.314;2022-08-19T05:52:40;7;7;
64627;PMS5003;59036;50.960;0.314;2022-08-19T05:55:07;4;4;
64627;PMS5003;59036;50.960;0.314;2022-08-19T05:57:35;4;4;
64627;PMS5003;59036;50.960;0.314;2022-08-19T06:00:02;3;3;
64627;PMS5003;59036;50.960;0.314;2022-08-19T06:02:30;5;5;
64627;PMS5003;59036;50.960;0.314;2022-08-19T06:04:57;4;4;
64627;PMS5003;59036;50.960;0.314;2022-08-19T06:07:24;4;4;
64627;PMS5003;59036;50.960;0.314;2022-08-19T06:09:51;7;5;
64627;PMS5003;59036;50.960;0.314;2022-08-19T06:12:18;7;7;
64627;PMS5003;59036;50.960;0.314;2022-08-19T06:14:45;6;6;
64627;PMS5003;59036;50.960;0.314;2022-08-19T06:17:12;6;6;
64627;PMS5003;59036;50.960;0.314;2022-08-19T06:19:40;6;6;
64627;PMS5003;59036;50.960;0.314;2022-08-19T06:22:07;6;6;
64627;PMS5003;59036;50.960;0.314;2022-08-19T06:24:34;7;5;
64627;PMS5003;59036;50.960;0.314;2022-08-19T06:27:03;8;7;
64627;PMS5003;59036;50.960;0.314;2022-08-19T06:29:30;7;7;
64627;PMS5003;59036;50.960;0.314;2022-08-19T06:31:59;7;7;
64627;PMS5003;59036;50.960;0.314;2022-08-19T06:34:28;7;7;
64627;PMS5003;59036;50.960;0.314;2022-08-19T06:36:58;7;7;
64627;PMS5003;59036;50.960;0.314;2022-08-19T06:39:28;8;8;
64627;PMS5003;59036;50.960;0.314;2022-08-19T06:41:58;9;9;
64627;PMS5003;59036;50.960;0.314;2022-08-19T06:44:27;7;7;
64627;PMS5003;59036;50.960;0.314;2022-08-19T06:46:56;8;8;
64627;PMS5003;59036;50.960;0.314;2022-08-19T06:49:24;8;7;
64627;PMS5003;59036;50.960;0.314;2022-08-19T06:51:51;8;8;
64627;PMS5003;59036;50.960;0.314;2022-08-19T06:54:18;9;9;
64627;PMS5003;59036;50.960;0.314;2022-08-19T06:56:46;10;9;
64627;PMS5003;59036;50.960;0.314;2022-08-19T06:59:14;8;8;
64627;PMS5003;59036;50.960;0.314;2022-08-19T07:01:43;7;7;
64627;PMS5003;59036;50.960;0.314;2022-08-19T07:04:12;7;4;
64627;PMS5003;59036;50.960;0.314;2022-08-19T07:06:40;5;5;
64627;PMS5003;59036;50.960;0.314;2022-08-19T07:09:09;7;7;
64627;PMS5003;59036;50.960;0.314;2022-08-19T07:11:41;7;7;
64627;PMS5003;59036;50.960;0.314;2022-08-19T07:14:10;7;7;
64627;PMS5003;59036;50.960;0.314;2022-08-19T07:16:37;10;10;
64627;PMS5003;59036;50.960;0.314;2022-08-19T07:19:04;5;5;
64627;PMS5003;59036;50.960;0.314;2022-08-19T07:21:31;9;8;
64627;PMS5003;59036;50.960;0.314;2022-08-19T07:23:58;6;6;
64627;PMS5003;59036;50.960;0.314;2022-08-19T07:26:26;7;6;
64627;PMS5003;59036;50.960;0.314;2022-08-19T07:28:56;5;5;
64627;PMS5003;59036;50.960;0.314;2022-08-19T07:31:23;4;4;
64627;PMS5003;59036;50.960;0.314;2022-08-19T07:33:53;6;6;
64627;PMS5003;59036;50.960;0.314;2022-08-19T07:36:23;4;4;
64627;PMS5003;59036;50.960;0.314;2022-08-19T07:38:51;6;6;
64627;PMS5003;59036;50.960;0.314;2022-08-19T07:41:20;4;4;
64627;PMS5003;59036;50.960;0.314;2022-08-19T07:43:51;5;5;
64627;PMS5003;59036;50.960;0.314;2022-08-19T07:46:18;5;4;
64627;PMS5003;59036;50.960;0.314;2022-08-19T07:48:46;5;5;
64627;PMS5003;59036;50.960;0.314;2022-08-19T07:51:15;5;5;
64627;PMS5003;59036;50.960;0.314;2022-08-19T07:53:45;4;4;
64627;PMS5003;59036;50.960;0.314;2022-08-19T07:56:12;5;5;
64627;PMS5003;59036;50.960;0.314;2022-08-19T07:58:42;4;4;
64627;PMS5003;59036;50.960;0.314;2022-08-19T08:01:11;3;3;
64627;PMS5003;59036;50.960;0.314;2022-08-19T08:03:40;5;4;
64627;PMS5003;59036;50.960;0.314;2022-08-19T08:06:08;3;2;
64627;PMS5003;59036;50.960;0.314;2022-08-19T08:08:35;5;4;
64627;PMS5003;59036;50.960;0.314;2022-08-19T08:11:02;5;4;
64627;PMS5003;59036;50.960;0.314;2022-08-19T08:13:30;5;4;
64627;PMS5003;59036;50.960;0.314;2022-08-19T08:15:58;5;4;
64627;PMS5003;59036;50.960;0.314;2022-08-19T08:18:26;4;4;
64627;PMS5003;59036;50.960;0.314;2022-08-19T08:20:54;5;5;
64627;PMS5003;59036;50.960;0.314;2022-08-19T08:23:22;4;4;
64627;PMS5003;59036;50.960;0.314;2022-08-19T08:25:50;2;2;
64627;PMS5003;59036;50.960;0.314;2022-08-19T08:28:18;4;4;
64627;PMS5003;59036;50.960;0.314;2022-08-19T08:30:47;5;4;
64627;PMS5003;59036;50.960;0.314;2022-08-19T08:33:17;4;4;
64627;PMS5003;59036;50.960;0.314;2022-08-19T08:35:45;5;5;
64627;PMS5003;59036;50.960;0.314;2022-08-19T08:38:12;4;4;
64627;PMS5003;59036;50.960;0.314;2022-08-19T08:40:43;5;5;
64627;PMS5003;59036;50.960;0.314;2022-08-19T08:43:22;4;4;
64627;PMS5003;59036;50.960;0.314;2022-08-19T08:45:56;4;4;
64627;PMS5003;59036;50.960;0.314;2022-08-19T08:48:34;5;5;
64627;PMS5003;59036;50.960;0.314;2022-08-19T08:51:06;3;3;
64627;PMS5003;59036;50.960;0.314;2022-08-19T08:53:36;5;5;
64627;PMS5003;59036;50.960;0.314;2022-08-19T08:56:04;4;4;
64627;PMS5003;59036;50.960;0.314;2022-08-19T08:58:36;4;4;
64627;PMS5003;59036;50.960;0.314;2022-08-19T09:01:11;5;5;
64627;PMS5003;59036;50.960;0.314;2022-08-19T09:03:39;4;3;
64627;PMS5003;59036;50.960;0.314;2022-08-19T09:06:12;5;4;
64627;PMS5003;59036;50.960;0.314;2022-08-19T09:09:00;4;4;
64627;PMS5003;59036;50.960;0.314;2022-08-19T09:11:34;5;5;
64627;PMS5003;59036;50.960;0.314;2022-08-19T09:14:12;6;6;
64627;PMS5003;59036;50.960;0.314;2022-08-19T09:16:46;6;6;
64627;PMS5003;59036;50.960;0.314;2022-08-19T09:19:13;11;10;
64627;PMS5003;59036;50.960;0.314;2022-08-19T09:21:40;9;9;
64627;PMS5003;59036;50.960;0.314;2022-08-19T09:24:07;4;4;
64627;PMS5003;59036;50.960;0.314;2022-08-19T09:26:34;6;6;
64627;PMS5003;59036;50.960;0.314;2022-08-19T09:29:01;7;7;
64627;PMS5003;59036;50.960;0.314;2022-08-19T09:31:29;5;5;
64627;PMS5003;59036;50.960;0.314;2022-08-19T09:33:56;4;4;
64627;PMS5003;59036;50.960;0.314;2022-08-19T09:36:24;5;5;
64627;PMS5003;59036;50.960;0.314;2022-08-19T09:38:54;6;6;
64627;PMS5003;59036;50.960;0.314;2022-08-19T09:41:23;5;5;
64627;PMS5003;59036;50.960;0.314;2022-08-19T09:43:51;4;4;
64627;PMS5003;59036;50.960;0.314;2022-08-19T09:46:21;6;5;
64627;PMS5003;59036;50.960;0.314;2022-08-19T09:48:49;4;4;
64627;PMS5003;59036;50.960;0.314;2022-08-19T09:51:18;4;4;
64627;PMS5003;59036;50.960;0.314;2022-08-19T09:53:48;5;5;
64627;PMS5003;59036;50.960;0.314;2022-08-19T09:56:17;4;4;
64627;PMS5003;59036;50.960;0.314;2022-08-19T09:58:46;4;4;
64627;PMS5003;59036;50.960;0.314;2022-08-19T10:01:18;5;5;
64627;PMS5003;59036;50.960;0.314;2022-08-19T10:03:48;4;4;
64627;PMS5003;59036;50.960;0.314;2022-08-19T10:06:16;4;4;
64627;PMS5003;59036;50.960;0.314;2022-08-19T10:08:44;3;3;
64627;PMS5003;59036;50.960;0.314;2022-08-19T10:11:12;4;4;
64627;PMS5003;59036;50.960;0.314;2022-08-19T10:13:39;5;5;
64627;PMS5003;59036;50.960;0.314;2022-08-19T10:16:07;7;7;
64627;PMS5003;59036;50.960;0.314;2022-08-19T10:18:36;7;7;
64627;PMS5003;59036;50.960;0.314;2022-08-19T10:21:05;6;6;
64627;PMS5003;59036;50.960;0.314;2022-08-19T10:23:34;5;4;
64627;PMS5003;59036;50.960;0.314;2022-08-19T10:26:01;6;6;
64627;PMS5003;59036;50.960;0.314;2022-08-19T10:28:29;7;6;
64627;PMS5003;59036;50.960;0.314;2022-08-19T10:30:56;5;5;
64627;PMS5003;59036;50.960;0.314;2022-08-19T10:33:23;6;6;
64627;PMS5003;59036;50.960;0.314;2022-08-19T10:35:58;5;5;
64627;PMS5003;59036;50.960;0.314;2022-08-19T10:38:26;7;7;
64627;PMS5003;59036;50.960;0.314;2022-08-19T10:40:53;7;6;
64627;PMS5003;59036;50.960;0.314;2022-08-19T10:43:20;8;7;
64627;PMS5003;59036;50.960;0.314;2022-08-19T10:45:48;9;9;
64627;PMS5003;59036;50.960;0.314;2022-08-19T10:48:19;7;7;
64627;PMS5003;59036;50.960;0.314;2022-08-19T10:50:46;5;5;
64627;PMS5003;59036;50.960;0.314;2022-08-19T10:53:13;5;5;
64627;PMS5003;59036;50.960;0.314;2022-08-19T10:55:40;3;3;
64627;PMS5003;59036;50.960;0.314;2022-08-19T10:58:10;3;2;
64627;PMS5003;59036;50.960;0.314;2022-08-19T11:00:39;3;3;
64627;PMS5003;59036;50.960;0.314;2022-08-19T11:03:06;2;2;
64627;PMS5003;59036;50.960;0.314;2022-08-19T11:05:34;1;1;
64627;PMS5003;59036;50.960;0.314;2022-08-19T11:08:02;1;1;
64627;PMS5003;59036;50.960;0.314;2022-08-19T11:10:30;3;3;
64627;PMS5003;59036;50.960;0.314;2022-08-19T11:12:56;2;2;
64627;PMS5003;59036;50.960;0.314;2022-08-19T11:15:23;2;2;
64627;PMS5003;59036;50.960;0.314;2022-08-19T11:17:51;2;2;
64627;PMS5003;59036;50.960;0.314;2022-08-19T11:20:18;1;1;
64627;PMS5003;59036;50.960;0.314;2022-08-19T11:22:45;1;1;
64627;PMS5003;59036;50.960;0.314;2022-08-19T11:25:12;2;2;
64627;PMS5003;59036;50.960;0.314;2022-08-19T11:27:39;2;2;
64627;PMS5003;59036;50.960;0.314;2022-08-19T11:30:07;4;4;
64627;PMS5003;59036;50.960;0.314;2022-08-19T11:32:35;2;2;
64627;PMS5003;59036;50.960;0.314;2022-08-19T11:35:02;3;2;
64627;PMS5003;59036;50.960;0.314;2022-08-19T11:37:30;3;3;
64627;PMS5003;59036;50.960;0.314;2022-08-19T11:39:57;2;2;
64627;PMS5003;59036;50.960;0.314;2022-08-19T11:42:23;3;3;
64627;PMS5003;59036;50.960;0.314;2022-08-19T11:44:50;3;3;
64627;PMS5003;59036;50.960;0.314;2022-08-19T11:47:19;5;3;
64627;PMS5003;59036;50.960;0.314;2022-08-19T11:49:46;2;2;
64627;PMS5003;59036;50.960;0.314;2022-08-19T11:52:14;1;1;
64627;PMS5003;59036;50.960;0.314;2022-08-19T11:54:41;0;0;
64627;PMS5003;59036;50.960;0.314;2022-08-19T11:57:08;0;0;
64627;PMS5003;59036;50.960;0.314;2022-08-19T11:59:35;0;0;
64627;PMS5003;59036;50.960;0.314;2022-08-19T12:02:02;0;0;
64627;PMS5003;59036;50.960;0.314;2022-08-19T12:04:29;0;0;
64627;PMS5003;59036;50.960;0.314;2022-08-19T12:06:56;1;0;
64627;PMS5003;59036;50.960;0.314;2022-08-19T12:09:24;1;1;
64627;PMS5003;59036;50.960;0.314;2022-08-19T12:11:51;1;1;
64627;PMS5003;59036;50.960;0.314;2022-08-19T12:14:18;0;0;
64627;PMS5003;59036;50.960;0.314;2022-08-19T12:16:45;1;1;
64627;PMS5003;59036;50.960;0.314;2022-08-19T12:19:12;1;1;
64627;PMS5003;59036;50.960;0.314;2022-08-19T12:21:39;1;1;
64627;PMS5003;59036;50.960;0.314;2022-08-19T12:24:06;1;1;
64627;PMS5003;59036;50.960;0.314;2022-08-19T12:26:34;0;0;
64627;PMS5003;59036;50.960;0.314;2022-08-19T12:29:02;0;0;
64627;PMS5003;59036;50.960;0.314;2022-08-19T12:31:29;1;1;
64627;PMS5003;59036;50.960;0.314;2022-08-19T12:33:57;1;1;
64627;PMS5003;59036;50.960;0.314;2022-08-19T12:36:24;3;3;
64627;PMS5003;59036;50.960;0.314;2022-08-19T12:38:51;3;3;
64627;PMS5003;59036;50.960;0.314;2022-08-19T12:41:19;3;3;
64627;PMS5003;59036;50.960;0.314;2022-08-19T12:43:46;4;4;
64627;PMS5003;59036;50.960;0.314;2022-08-19T12:46:13;4;4;
64627;PMS5003;59036;50.960;0.314;2022-08-19T12:48:40;5;5;
64627;PMS5003;59036;50.960;0.314;2022-08-19T12:51:08;3;3;
64627;PMS5003;59036;50.960;0.314;2022-08-19T12:53:37;2;2;
64627;PMS5003;59036;50.960;0.314;2022-08-19T12:56:04;4;3;
64627;PMS5003;59036;50.960;0.314;2022-08-19T12:58:32;5;5;
64627;PMS5003;59036;50.960;0.314;2022-08-19T13:00:59;4;4;
64627;PMS5003;59036;50.960;0.314;2022-08-19T13:03:26;2;2;
64627;PMS5003;59036;50.960;0.314;2022-08-19T13:05:54;4;4;
64627;PMS5003;59036;50.960;0.314;2022-08-19T13:08:21;4;4;
64627;PMS5003;59036;50.960;0.314;2022-08-19T13:10:49;4;4;
64627;PMS5003;59036;50.960;0.314;2022-08-19T13:13:16;2;2;
64627;PMS5003;59036;50.960;0.314;2022-08-19T13:15:44;4;4;
64627;PMS5003;59036;50.960;0.314;2022-08-19T13:18:12;4;4;
64627;PMS5003;59036;50.960;0.314;2022-08-19T13:20:40;3;3;
64627;PMS5003;59036;50.960;0.314;2022-08-19T13:23:07;5;5;
64627;PMS5003;59036;50.960;0.314;2022-08-19T13:25:35;5;5;
64627;PMS5003;59036;50.960;0.314;2022-08-19T13:28:03;3;3;
64627;PMS5003;59036;50.960;0.314;2022-08-19T13:30:30;5;5;
64627;PMS5003;59036;50.960;0.314;2022-08-19T13:32:57;5;5;
64627;PMS5003;59036;50.960;0.314;2022-08-19T13:35:25;5;5;
64627;PMS5003;59036;50.960;0.314;2022-08-19T13:37:52;4;4;
64627;PMS5003;59036;50.960;0.314;2022-08-19T13:40:20;3;3;
64627;PMS5003;59036;50.960;0.314;2022-08-19T13:42:50;4;4;
64627;PMS5003;59036;50.960;0.314;2022-08-19T13:45:19;2;2;
64627;PMS5003;59036;50.960;0.314;2022-08-19T13:47:49;2;2;
64627;PMS5003;59036;50.960;0.314;2022-08-19T13:50:17;5;4;
64627;PMS5003;59036;50.960;0.314;2022-08-19T13:52:47;6;6;
64627;PMS5003;59036;50.960;0.314;2022-08-19T13:55:15;5;5;
64627;PMS5003;59036;50.960;0.314;2022-08-19T13:57:42;7;6;
64627;PMS5003;59036;50.960;0.314;2022-08-19T14:00:10;4;4;
64627;PMS5003;59036;50.960;0.314;2022-08-19T14:02:40;5;5;
64627;PMS5003;59036;50.960;0.314;2022-08-19T14:05:09;7;6;
64627;PMS5003;59036;50.960;0.314;2022-08-19T14:07:38;7;6;
64627;PMS5003;59036;50.960;0.314;2022-08-19T14:10:06;7;6;
64627;PMS5003;59036;50.960;0.314;2022-08-19T14:12:36;6;6;
64627;PMS5003;59036;50.960;0.314;2022-08-19T14:15:05;6;6;
64627;PMS5003;59036;50.960;0.314;2022-08-19T14:17:34;6;6;
64627;PMS5003;59036;50.960;0.314;2022-08-19T14:20:05;7;7;
64627;PMS5003;59036;50.960;0.314;2022-08-19T14:22:34;6;6;
64627;PMS5003;59036;50.960;0.314;2022-08-19T14:25:02;7;6;
64627;PMS5003;59036;50.960;0.314;2022-08-19T14:27:29;5;5;
64627;PMS5003;59036;50.960;0.314;2022-08-19T14:29:56;6;5;
64627;PMS5003;59036;50.960;0.314;2022-08-19T14:32:23;6;4;
64627;PMS5003;59036;50.960;0.314;2022-08-19T14:34:50;5;5;
64627;PMS5003;59036;50.960;0.314;2022-08-19T14:37:17;4;4;
64627;PMS5003;59036;50.960;0.314;2022-08-19T14:39:44;5;5;
64627;PMS5003;59036;50.960;0.314;2022-08-19T14:42:11;5;5;
64627;PMS5003;59036;50.960;0.314;2022-08-19T14:44:39;6;6;
64627;PMS5003;59036;50.960;0.314;2022-08-19T14:47:07;5;5;
64627;PMS5003;59036;50.960;0.314;2022-08-19T14:49:35;5;5;
64627;PMS5003;59036;50.960;0.314;2022-08-19T14:52:03;7;7;
64627;PMS5003;59036;50.960;0.314;2022-08-19T14:54:30;5;5;
64627;PMS5003;59036;50.960;0.314;2022-08-19T14:56:57;7;7;
64627;PMS5003;59036;50.960;0.314;2022-08-19T14:59:24;6;6;
64627;PMS5003;59036;50.960;0.314;2022-08-19T15:01:51;5;5;
64627;PMS5003;59036;50.960;0.314;2022-08-19T15:04:18;7;6;
64627;PMS5003;59036;50.960;0.314;2022-08-19T15:06:45;6;4;
64627;PMS5003;59036;50.960;0.314;2022-08-19T15:09:18;6;6;
64627;PMS5003;59036;50.960;0.314;2022-08-19T15:11:45;5;5;
64627;PMS5003;59036;50.960;0.314;2022-08-19T15:14:12;6;6;
64627;PMS5003;59036;50.960;0.314;2022-08-19T15:16:39;6;6;
64627;PMS5003;59036;50.960;0.314;2022-08-19T15:19:06;4;4;
64627;PMS5003;59036;50.960;0.314;2022-08-19T15:21:34;4;3;
64627;PMS5003;59036;50.960;0.314;2022-08-19T15:24:01;4;4;
64627;PMS5003;59036;50.960;0.314;2022-08-19T15:26:29;6;6;
64627;PMS5003;59036;50.960;0.314;2022-08-19T15:28:57;5;5;
64627;PMS5003;59036;50.960;0.314;2022-08-19T15:31:24;6;6;
64627;PMS5003;59036;50.960;0.314;2022-08-19T15:33:52;5;5;
64627;PMS5003;59036;50.960;0.314;2022-08-19T15:36:21;4;4;
64627;PMS5003;59036;50.960;0.314;2022-08-19T15:38:47;6;6;
64627;PMS5003;59036;50.960;0.314;2022-08-19T15:41:16;4;4;
64627;PMS5003;59036;50.960;0.314;2022-08-19T15:43:45;6;6;
64627;PMS5003;59036;50.960;0.314;2022-08-19T15:46:12;6;6;
64627;PMS5003;59036;50.960;0.314;2022-08-19T15:48:43;7;6;
64627;PMS5003;59036;50.960;0.314;2022-08-19T15:51:12;6;5;
64627;PMS5003;59036;50.960;0.314;2022-08-19T15:53:39;5;5;
64627;PMS5003;59036;50.960;0.314;2022-08-19T15:56:06;7;7;
64627;PMS5003;59036;50.960;0.314;2022-08-19T15:58:34;7;6;
64627;PMS5003;59036;50.960;0.314;2022-08-19T16:01:02;5;5;
64627;PMS5003;59036;50.960;0.314;2022-08-19T16:03:31;5;5;
64627;PMS5003;59036;50.960;0.314;2022-08-19T16:05:58;5;5;
64627;PMS5003;59036;50.960;0.314;2022-08-19T16:08:26;5;5;
64627;PMS5003;59036;50.960;0.314;2022-08-19T16:10:53;7;5;
64627;PMS5003;59036;50.960;0.314;2022-08-19T16:13:21;3;3;
64627;PMS5003;59036;50.960;0.314;2022-08-19T16:15:48;5;4;
64627;PMS5003;59036;50.960;0.314;2022-08-19T16:18:15;4;4;
64627;PMS5003;59036;50.960;0.314;2022-08-19T16:20:43;2;2;
64627;PMS5003;59036;50.960;0.314;2022-08-19T16:23:10;4;4;
64627;PMS5003;59036;50.960;0.314;2022-08-19T16:25:36;5;5;
64627;PMS5003;59036;50.960;0.314;2022-08-19T16:28:03;4;4;
64627;PMS5003;59036;50.960;0.314;2022-08-19T16:30:30;3;3;
64627;PMS5003;59036;50.960;0.314;2022-08-19T16:32:58;6;5;
64627;PMS5003;59036;50.960;0.314;2022-08-19T16:35:25;4;3;
64627;PMS5003;59036;50.960;0.314;2022-08-19T16:37:51;3;2;
64627;PMS5003;59036;50.960;0.314;2022-08-19T16:40:18;3;3;
64627;PMS5003;59036;50.960;0.314;2022-08-19T16:42:45;5;4;
64627;PMS5003;59036;50.960;0.314;2022-08-19T16:45:12;4;4;
64627;PMS5003;59036;50.960;0.314;2022-08-19T16:47:39;6;4;
64627;PMS5003;59036;50.960;0.314;2022-08-19T16:50:07;5;5;
64627;PMS5003;59036;50.960;0.314;2022-08-19T16:52:34;5;4;
64627;PMS5003;59036;50.960;0.314;2022-08-19T16:55:03;4;4;